Tiempo atmosférico en la estación meteorológica de Cervantes, Lugo (1020 m.)



Fecha
DESCASC
Temp. máxima en grados centígrados (hora)
DESCASC
Temp. mínima en grados centígrados (hora)
DESCASC
Temp. media en grados centígrados
DESCASC
Racha de viento máxima en m/sg (hora)
DESCASC
Velocidad máxima media en intervalos de 10 minutos(hora)
DESCASC
Precipitaciones diarias en mm
DESCASC
Precipitaciones de 00:00 a 06:00 en mm
DESCASC
Precipitaciones de 06:00 a 12:00 en mm
DESCASC
Precipitaciones de 12:00 a 18:00 en mm
DESCASC
Precipitaciones de 18:00 a 24:00 en mm
DESCASC
17-10-2019 13.9 (15:10) 8.2 (22:50) 11 8.33 (00:30) 4.72 (02:10) 7.4 5 1.2 0 1.2
16-10-2019 12.2 (13:50) 8.9 (00:00) 10.5 13.33 (13:10) 6.39 (15:30) 5.2 0 0.2 0.6 4.4
15-10-2019 9.8 (13:40) 5 (07:20) 7.4 11.67 (18:40) 4.44 (13:50) 2.2 1 0 0.4 0.8
14-10-2019 11.9 (00:00) 4.6 (18:00) 8.2 12.22 (18:00) 4.44 (17:50) 26.6 15.2 4.8 5.8 0.8
13-10-2019 14.4 (00:00) 11.3 (00:00) 12.8 13.89 (04:40) 7.22 (06:00) 18 0 8.4 5.4 4.2
12-10-2019 22.4 (16:00) 13.3 (00:00) 17.8 13.89 (13:10) 6.67 (13:10) 0 0 0 0 0
11-10-2019 23.5 (15:10) 12.6 (00:00) 18.1 9.72 (16:20) 5 (13:00) 0 0 0 0 0
10-10-2019 24.1 (17:50) 5.3 (00:00) 14.7 5.56 (13:00) 3.06 (13:00) 0 0 0 0 0
09-10-2019 15.4 (17:30) 5.8 (00:00) 10.6 4.72 (15:00) 2.5 (20:10) 0.6 0.6 0 0 0
08-10-2019 18.1 (12:30) 9.7 (00:00) 13.9 5.83 (16:40) 2.5 (16:40) 5.6 0 0 2.4 3.2
07-10-2019 24.1 (16:10) 12.2 (00:00) 18.2 4.72 (16:50) 2.5 (19:00) 0 0 0 0 0
06-10-2019 20.2 (17:30) 9.1 (00:00) 14.7 5.28 (14:30) 2.78 (19:10) 0 0 0 0 0
05-10-2019 19.2 (16:30) 8.1 (00:00) 13.7 5.56 (14:50) 3.06 (15:00) 0.2 0 0.2 0 0
04-10-2019 18.5 (18:00) 10.3 (00:00) 14.4 5.83 (16:40) 2.78 (20:30) 2 1 1 0 0
03-10-2019 19.5 (12:50) 9.3 (00:00) 14.4 7.5 (14:20) 3.61 (05:40) 1 0 0 0 1
02-10-2019 17.2 (17:40) 8.7 (00:00) 13 6.39 (15:40) 2.78 (00:50) 0.2 0 0.2 0 0
01-10-2019 18 (17:50) 10.4 (00:00) 14.2 11.11 (14:40) 3.89 (21:00) 2.2 0 2.2 0 0
30-09-2019 23 (17:30) 13.1 (00:00) 18.1 7.5 (12:50) 3.61 (12:40) 0 0 0 0 0
29-09-2019 18.5 (11:10) 12.5 (00:00) 15.5 8.33 (13:00) 3.89 (12:00) 2 0 0 1.4 0.6
28-09-2019 24.1 (18:00) 7 (00:00) 15.6 6.67 (14:30) 3.89 (14:40) 0 0 0 0 0
27-09-2019 16.7 (17:40) 9.1 (00:00) 12.9 7.22 (14:50) 2.78 (15:00) 2 0 0.6 1.4 0
26-09-2019 21.6 (17:50) 7.5 (00:00) 14.6 5.83 (17:30) 2.78 (17:10) 0 0 0 0 0
25-09-2019 15 (17:00) 8.8 (00:00) 11.9 5.83 (01:10) 2.22 (02:20) 0.2 0.2 0 0 0
24-09-2019 16.7 (13:40) 9.3 (00:00) 13 10 (04:10) 4.17 (03:40) 4.4 1.2 3.2 0 0
23-09-2019 14.9 (14:00) 9.5 (00:00) 12.2 9.17 (11:40) 4.44 (16:10) 1 0 0 1 0
22-09-2019 16 (16:20) 8.8 (00:00) 12.4 7.78 (14:20) 3.33 (06:50) 0.2 0 0 0.2 0
21-09-2019 16.2 (14:40) 9.4 (00:00) 12.8 13.61 (06:20) 6.67 (12:40) 11.4 0 0.8 3.8 6.8
20-09-2019 25 (14:10) 13.8 (00:00) 19.4 9.44 (04:10) 4.72 (10:10) 1 0 0 1 0

Gráficas

Temp. máximas Temp. mínimas Temp. medias Precipitaciones Rachas de viento máximas Velocidades máximas media en intervalos de 10 minutos

Datos horarios

Fecha y hora oficial Temperatura (ºC) Velocidad del viento (km/h) Dirección del viento Racha (km/h) Dirección de racha Precipitación (mm) Presión (hPa) Tendencia (hPa) Humedad (%)
2019-10-19 23:00:00 -- -- -- -- -- -- -- -- --
2019-10-19 22:00:00 5.4 7 Norte 26 Norte 0.6 -- -- 93
2019-10-19 21:00:00 5.9 9 Norte 17 Norte 0.8 -- -- 92
2019-10-19 20:00:00 6.3 6 Norte 14 Noroeste 0.2 -- -- 91
2019-10-19 19:00:00 6.7 5 Norte 10 Noroeste 0.2 -- -- 87
2019-10-19 18:00:00 8.5 4 Sur 12 Sur 2.2 -- -- 79
2019-10-19 17:00:00 6.8 5 Sur 10 Sur 2.8 -- -- 91
2019-10-19 16:00:00 6.6 3 Noroeste 7 Nordeste 2 -- -- 90
2019-10-19 15:00:00 7.3 0 Calma 5 Sudeste 2 -- -- 90
2019-10-19 14:00:00 7.6 0 Calma 5 Sudeste 2.2 -- -- 89
2019-10-19 13:00:00 7.5 0 Calma 9 Noroeste 4.8 -- -- 89
2019-10-19 12:00:00 8.4 0 Calma 8 Sudoeste 3.4 -- -- 90
2019-10-19 11:00:00 8.4 6 Oeste 14 Oeste 2.6 -- -- 88
2019-10-19 10:00:00 8.2 0 Calma 8 Norte 2.4 -- -- 92
2019-10-19 09:00:00 8 2 Noroeste 6 Sur 1.4 -- -- 92
2019-10-19 08:00:00 8.2 0 Calma 16 Norte 2.8 -- -- 91
2019-10-19 07:00:00 8.5 6 Nordeste 23 Nordeste 5.8 -- -- 89
2019-10-19 06:00:00 8.9 2 Sur 18 Sudoeste 1.2 -- -- 90
2019-10-19 05:00:00 9.2 5 Sudoeste 18 Sur 1.2 -- -- 88
2019-10-19 04:00:00 9.3 11 Sur 24 Oeste 0.8 -- -- 87
2019-10-19 03:00:00 9.2 9 Sur 25 Sudoeste 0.4 -- -- 87
2019-10-19 02:00:00 9.3 10 Sudoeste 27 Sur 1 -- -- 86
2019-10-19 01:00:00 9 6 Sudoeste 23 Oeste 0.6 -- -- 88
2019-10-19 00:00:00 9.2 7 Sur 22 Sur 1 -- -- 86
2019-10-18 23:00:00 9.3 9 Sudoeste 28 Sudeste 0.2 -- -- 85
2019-10-18 22:00:00 9.4 8 Sur 30 Sur 0.2 -- -- 85
2019-10-18 21:00:00 10.1 10 Sur 29 Sudoeste 0 -- -- 78
2019-10-18 20:00:00 10.3 13 Sudoeste 27 Oeste 0 -- -- 76
2019-10-18 19:00:00 10.4 10 Oeste 23 Sudoeste 0 -- -- 74
2019-10-18 18:00:00 10.8 8 Sudoeste 22 Sudoeste 0 -- -- 74
2019-10-18 17:00:00 10.7 6 Sur 19 Sur 0 -- -- 75
2019-10-18 16:00:00 9.9 4 Sur 22 Oeste 0 -- -- 82
2019-10-18 15:00:00 9.5 9 Sur 21 Oeste 0 -- -- 81
2019-10-18 14:00:00 10.2 6 Sur 24 Sudoeste 0 -- -- 78
2019-10-18 13:00:00 9.5 9 Sur 19 Sur 0 -- -- 80
2019-10-18 12:00:00 9 4 Sudeste 13 Este 0 -- -- 86
2019-10-18 11:00:00 8.5 4 Sudeste 14 Sudoeste 0 -- -- 86
2019-10-18 10:00:00 7.9 6 Sur 19 Sudoeste 0 -- -- 84
2019-10-18 09:00:00 6.8 3 Oeste 8 Noroeste 0 -- -- 86
2019-10-18 08:00:00 6.9 0 Calma 7 Nordeste 0 -- -- 89
2019-10-18 07:00:00 7.1 3 Este 13 Sudoeste 0 -- -- 88
2019-10-18 06:00:00 7.6 3 Nordeste 18 Norte 0 -- -- 88
2019-10-18 05:00:00 7.6 4 Sudeste 19 Noroeste 0 -- -- 86
2019-10-18 04:00:00 7.6 4 Sur 17 Oeste 0 -- -- 84
2019-10-18 03:00:00 7.8 5 Sudoeste 14 Oeste 0.2 -- -- 89
2019-10-18 02:00:00 8 2 Sudeste 7 Sur 0 -- -- 92
2019-10-18 01:00:00 8.1 0 Calma 7 Norte 0 -- -- 91
2019-10-18 00:00:00 8.2 3 Este 18 Norte 0.2 -- -- 91
2019-10-17 23:00:00 8.2 7 Norte 21 Noroeste 0.4 -- -- 91
2019-10-17 22:00:00 9 4 Nordeste 14 Este 0.4 -- -- 90
2019-10-17 21:00:00 11.2 3 Nordeste 16 Sudoeste 0.2 -- -- 86
2019-10-17 20:00:00 12.4 6 Sudeste 18 Noroeste 0 -- -- 75
2019-10-17 19:00:00 12.8 4 Sur 11 Sudoeste 0 -- -- 71
2019-10-17 18:00:00 13.3 7 Noroeste 22 Oeste 0 -- -- 66
2019-10-17 17:00:00 13.3 6 Sudoeste 21 Sudoeste 0 -- -- 63
2019-10-17 16:00:00 13.8 6 Sudoeste 24 Sur 0 -- -- 62
2019-10-17 15:00:00 13.6 7 Sudoeste 23 Sudoeste 0 -- -- 63
2019-10-17 14:00:00 12.3 12 Sudoeste 23 Sudoeste 0 -- -- 66
2019-10-17 13:00:00 12.6 8 Sudoeste 20 Sudeste 0 -- -- 71
2019-10-17 12:00:00 11.2 8 Oeste 28 Noroeste 0 -- -- 75
2019-10-17 11:00:00 11.4 8 Sudoeste 29 Oeste 0 -- -- 75
2019-10-17 10:00:00 11.2 6 Oeste 25 Sudoeste 0 -- -- 81
2019-10-17 09:00:00 10.8 6 Oeste 24 Sur 0.6 -- -- 85
2019-10-17 08:00:00 10.8 5 Sudoeste 26 Sur 0.2 -- -- 87
2019-10-17 07:00:00 10.6 4 Sur 14 Sur 0.4 -- -- 90
2019-10-17 06:00:00 10.7 3 Sur 11 Sudoeste 0.8 -- -- 91
2019-10-17 05:00:00 10.7 5 Sur 25 Sur 0.8 -- -- 90
2019-10-17 04:00:00 10.3 9 Sur 23 Sudoeste 0 -- -- 89
2019-10-17 03:00:00 10.5 13 Sur 30 Sudoeste 0 -- -- 88
2019-10-17 02:00:00 10.6 10 Sudoeste 26 Sur 0.4 -- -- 87
2019-10-17 01:00:00 10.5 9 Sur 30 Sur 3 -- -- 89
2019-10-17 00:00:00 11 13 Sur 41 Sur 0.8 -- -- 83
2019-10-16 23:00:00 10.2 10 Sur 31 Sur 1 -- -- 91
2019-10-16 22:00:00 10 15 Sur 30 Sur 1.2 -- -- 91
2019-10-16 21:00:00 10.1 18 Sur 34 Sur 0 -- -- 90
2019-10-16 20:00:00 10 19 Sur 39 Sur 0.8 -- -- 90
2019-10-16 19:00:00 10.2 19 Sur 39 Sur 0.6 -- -- 89
2019-10-16 18:00:00 10.5 18 Sur 37 Sur 0.2 -- -- 87
2019-10-16 17:00:00 10.8 18 Sur 35 Sur 0.4 -- -- 88
2019-10-16 16:00:00 11.6 18 Sur 42 Sur 0 -- -- 83
2019-10-16 15:00:00 11.1 18 Sur 37 Sudeste 0 -- -- 83
2019-10-16 14:00:00 12 17 Sur 48 Sur 0 -- -- 79
2019-10-16 13:00:00 11.5 16 Sur 38 Sur 0 -- -- 79
2019-10-16 12:00:00 10.9 13 Sur 46 Sur 0.2 -- -- 79
2019-10-16 11:00:00 10.7 12 Sur 31 Sur 0 -- -- 77
2019-10-16 10:00:00 10.3 10 Sur 28 Sur 0 -- -- 78
2019-10-16 09:00:00 9.8 12 Sur 38 Sur 0 -- -- 80
2019-10-16 08:00:00 9.2 9 Sur 30 Sur 0 -- -- 83
2019-10-16 07:00:00 9.2 10 Sur 27 Sur 0 -- -- 84
2019-10-16 06:00:00 9.1 12 Sur 33 Sur 0 -- -- 84
2019-10-16 05:00:00 9.7 16 Sudoeste 37 Sur 0 -- -- 79
2019-10-16 04:00:00 9.5 10 Sur 38 Sur 0 -- -- 80
2019-10-16 03:00:00 9.7 10 Sudoeste 34 Sudoeste 0 -- -- 78
2019-10-16 02:00:00 9.3 13 Sudoeste 33 Sudoeste 0 -- -- 80
2019-10-16 01:00:00 9.2 8 Sudoeste 30 Sur 0 -- -- 80
2019-10-16 00:00:00 8.9 13 Sudoeste 39 Oeste 0 -- -- 82
2019-10-15 23:00:00 8.7 13 Sudoeste 40 Oeste 0 -- -- 83
2019-10-15 22:00:00 8.5 14 Sudoeste 32 Sur 0 -- -- 81
2019-10-15 21:00:00 8.6 12 Sur 39 Sudeste 0 -- -- 77
2019-10-15 20:00:00 8.3 10 Sudoeste 35 Sur 0.2 -- -- 78
2019-10-15 19:00:00 7.7 9 Sudoeste 42 Oeste 0.6 -- -- 79
2019-10-15 18:00:00 8.2 8 Sur 29 Sudoeste 0.4 -- -- 78
2019-10-15 17:00:00 8.1 9 Sur 26 Sudoeste 0 -- -- 84
2019-10-15 16:00:00 8.6 8 Sur 29 Sur 0 -- -- 81
2019-10-15 15:00:00 8.4 11 Sudoeste 28 Sur 0 -- -- 82
2019-10-15 14:00:00 9.3 11 Sudoeste 29 Sur 0 -- -- 74
2019-10-15 13:00:00 8.1 9 Sur 35 Sudoeste 0 -- -- 79
2019-10-15 12:00:00 8 10 Sudoeste 28 Sudoeste 0 -- -- 80
2019-10-15 11:00:00 7.3 7 Oeste 21 Sur 0 -- -- 79
2019-10-15 10:00:00 6.4 7 Sudoeste 21 Sudoeste 0 -- -- 79
2019-10-15 09:00:00 6.1 7 Sudoeste 17 Oeste 0 -- -- 82
2019-10-15 08:00:00 5.3 3 Nordeste 8 Este 0 -- -- 89
2019-10-15 07:00:00 5.3 3 Sur 10 Sudeste 0 -- -- 89
2019-10-15 06:00:00 5.6 3 Nordeste 21 Nordeste 0 -- -- 85
2019-10-15 05:00:00 5.6 6 Nordeste 22 Norte 0 -- -- 86
2019-10-15 04:00:00 5.5 6 Nordeste 21 Nordeste 0 -- -- 86
2019-10-15 03:00:00 5.5 9 Nordeste 36 Norte 0 -- -- 88
2019-10-15 02:00:00 5.5 9 Norte 30 Norte 0.4 -- -- 88
2019-10-15 01:00:00 5.5 9 Norte 32 Norte 0.6 -- -- 88
2019-10-15 00:00:00 5.3 8 Nordeste 27 Noroeste 0 -- -- 87
2019-10-14 23:00:00 5.1 9 Nordeste 32 Norte 0 -- -- 86
2019-10-14 22:00:00 5 12 Norte 44 Nordeste 0.4 -- -- 85
2019-10-14 21:00:00 5.1 9 Nordeste 30 Norte 0 -- -- 87
2019-10-14 20:00:00 5.1 10 Norte 35 Noroeste 0.4 -- -- 87
2019-10-14 19:00:00 5.1 10 Norte 27 Norte 0 -- -- 84
2019-10-14 18:00:00 4.6 13 Norte 44 Norte 1.8 -- -- 87
2019-10-14 17:00:00 5.7 13 Norte 28 Norte 2 -- -- 88
2019-10-14 16:00:00 6.7 6 Nordeste 22 Norte 0.2 -- -- 86
2019-10-14 15:00:00 6.1 11 Sur 30 Sudoeste 1.4 -- -- 83
2019-10-14 14:00:00 8.6 8 Sur 24 Sudoeste 0 -- -- 77
2019-10-14 13:00:00 7.8 9 Sudoeste 24 Oeste 0.4 -- -- 78
2019-10-14 12:00:00 7.1 4 Sudoeste 19 Sur 2.8 -- -- 85
2019-10-14 11:00:00 7 11 Sur 21 Sur 0 -- -- 89
2019-10-14 10:00:00 6.8 2 Nordeste 10 Nordeste 0 -- -- 88
2019-10-14 09:00:00 6.5 6 Sudoeste 30 Sudoeste 0.2 -- -- 85
2019-10-14 08:00:00 6.4 12 Sur 33 Sur 0.8 -- -- 86
2019-10-14 07:00:00 6.6 3 Noroeste 15 Sur 1 -- -- 89
2019-10-14 06:00:00 7 7 Sudoeste 26 Noroeste 2 -- -- 84
2019-10-14 05:00:00 7.2 6 Noroeste 15 Norte 4.6 -- -- 90
2019-10-14 04:00:00 7.2 0 Calma 17 Nordeste 4.6 -- -- 90
2019-10-14 03:00:00 7.4 9 Norte 24 Noroeste 3.6 -- -- 90
2019-10-14 02:00:00 8.1 4 Norte 13 Norte 0.4 -- -- 90
2019-10-14 01:00:00 10.2 4 Sudoeste 12 Noroeste 0 -- -- 90
2019-10-14 00:00:00 11.9 2 Noroeste 29 Sudoeste 1.2 -- -- 84
2019-10-13 23:00:00 12.5 10 Sudoeste 32 Sur 0.6 -- -- 81
2019-10-13 22:00:00 12.4 9 Sur 23 Sur 0 -- -- 84
2019-10-13 21:00:00 12.2 10 Sur 22 Sudoeste 0.6 -- -- 86
2019-10-13 20:00:00 11.8 6 Sudoeste 13 Sur 0.8 -- -- 90
2019-10-13 19:00:00 11.6 3 Sur 17 Sur 1 -- -- 88
2019-10-13 18:00:00 11.7 7 Oeste 23 Oeste 2 -- -- 85
2019-10-13 17:00:00 12.1 11 Oeste 32 Oeste 2 -- -- 82
2019-10-13 16:00:00 12.6 8 Sur 20 Norte 0.2 -- -- 87
2019-10-13 15:00:00 13.4 9 Sudoeste 24 Sudoeste 0.2 -- -- 79
2019-10-13 14:00:00 12.9 9 Sur 23 Sur 0.6 -- -- 89
2019-10-13 13:00:00 12.8 7 Sur 30 Sur 0.4 -- -- 86
2019-10-13 12:00:00 12.4 5 Sur 23 Sur 1.6 -- -- 89
2019-10-13 11:00:00 11.7 3 Sudeste 17 Sur 2.2 -- -- 89
2019-10-13 10:00:00 11.5 8 Sur 35 Sur 1.8 -- -- 88
2019-10-13 09:00:00 11.4 18 Sur 48 Sur 2.8 -- -- 84
2019-10-13 08:00:00 12 21 Sur 49 Sur 0 -- -- 78
2019-10-13 07:00:00 12.5 19 Sur 49 Sur 0 -- -- 68
2019-10-13 06:00:00 12.3 26 Sur 50 Sur 0 -- -- 66
2019-10-13 05:00:00 12.4 21 Sur 50 Sur 0 -- -- 66
2019-10-13 04:00:00 12.4 14 Sur 36 Sur 0 -- -- 64
2019-10-13 03:00:00 12.5 19 Sur 43 Sur 0 -- -- 66
2019-10-13 02:00:00 12.8 19 Sur 42 Sudeste 0 -- -- 65
2019-10-13 01:00:00 13.5 17 Sur 36 Sur 0 -- -- 62
2019-10-13 00:00:00 14.4 9 Sudoeste 30 Sur 0 -- -- 65
2019-10-12 23:00:00 14.9 7 Sudoeste 35 Sur 0 -- -- 68
2019-10-12 22:00:00 14.7 5 Sudoeste 30 Sur 0 -- -- 71
2019-10-12 21:00:00 15.7 13 Sudoeste 39 Sudoeste 0 -- -- 67
2019-10-12 20:00:00 18.4 10 Oeste 31 Oeste 0 -- -- 52
2019-10-12 19:00:00 19.7 15 Sur 44 Sur 0 -- -- 43
2019-10-12 18:00:00 21.3 12 Oeste 41 Sur 0 -- -- 39
2019-10-12 17:00:00 20.7 12 Sudoeste 43 Sur 0 -- -- 42
2019-10-12 16:00:00 22.4 9 Sur 38 Sudeste 0 -- -- 39
2019-10-12 15:00:00 20.8 18 Sur 45 Sur 0 -- -- 42
2019-10-12 14:00:00 20.3 18 Sudoeste 50 Sur 0 -- -- 46
2019-10-12 13:00:00 20.4 20 Sur 48 Sur 0 -- -- 44
2019-10-12 12:00:00 19.1 19 Sur 39 Sur 0 -- -- 47
2019-10-12 11:00:00 17.4 21 Sur 42 Sur 0 -- -- 54
2019-10-12 10:00:00 15.3 14 Sur 34 Sur 0 -- -- 61
2019-10-12 09:00:00 13.3 13 Sur 32 Sur 0 -- -- 68
2019-10-12 08:00:00 13.7 12 Sur 27 Sur 0 -- -- 65
2019-10-12 07:00:00 13.9 6 Sudoeste 22 Sudeste 0 -- -- 65
2019-10-12 06:00:00 15.2 10 Sudoeste 28 Sudoeste 0 -- -- 60
2019-10-12 05:00:00 16 8 Sur 27 Sur 0 -- -- 57
2019-10-12 04:00:00 16.3 8 Sur 25 Sudoeste 0 -- -- 55
2019-10-12 03:00:00 16.7 12 Sur 29 Sur 0 -- -- 54
2019-10-12 02:00:00 16.6 9 Sur 27 Sur 0 -- -- 56
2019-10-12 01:00:00 16.1 7 Sur 19 Sur 0 -- -- 58
2019-10-12 00:00:00 15.1 6 Oeste 13 Sudoeste 0 -- -- 62
2019-10-11 23:00:00 16.3 7 Sudoeste 19 Oeste 0 -- -- 58
2019-10-11 22:00:00 16.5 5 Oeste 13 Oeste 0 -- -- 58
2019-10-11 21:00:00 16.3 5 Noroeste 10 Noroeste 0 -- -- 60
2019-10-11 20:00:00 18.1 4 Noroeste 15 Oeste 0 -- -- 53
2019-10-11 19:00:00 20.3 5 Noroeste 22 Oeste 0 -- -- 46
2019-10-11 18:00:00 22.7 9 Sudoeste 30 Sudoeste 0 -- -- 40
2019-10-11 17:00:00 22.8 12 Sudoeste 35 Sudoeste 0 -- -- 37
2019-10-11 16:00:00 23.2 11 Sudoeste 30 Oeste 0 -- -- 35
2019-10-11 15:00:00 23.1 9 Sudoeste 28 Sur 0 -- -- 35
2019-10-11 14:00:00 22.6 10 Sur 26 Sur 0 -- -- 35
2019-10-11 13:00:00 20.2 18 Sur 28 Sur 0 -- -- 37
2019-10-11 12:00:00 20 14 Sur 28 Sur 0 -- -- 36
2019-10-11 11:00:00 19.7 6 Sur 23 Sur 0 -- -- 37
2019-10-11 10:00:00 16.5 7 Sudoeste 21 Oeste 0 -- -- 41
2019-10-11 09:00:00 14.6 10 Sudoeste 24 Sudoeste 0 -- -- 44
2019-10-11 08:00:00 15.1 12 Sudoeste 25 Sudoeste 0 -- -- 44
2019-10-11 07:00:00 13.9 8 Sudoeste 18 Sudoeste 0 -- -- 48
2019-10-11 06:00:00 13.4 4 Sudoeste 18 Sudoeste 0 -- -- 49
2019-10-11 05:00:00 14.1 8 Sudoeste 23 Sur 0 -- -- 46
2019-10-11 04:00:00 14.8 10 Sudoeste 26 Sudoeste 0 -- -- 43
2019-10-11 03:00:00 15.3 10 Oeste 30 Oeste 0 -- -- 42
2019-10-11 02:00:00 15.7 16 Sudoeste 33 Oeste 0 -- -- 42
2019-10-11 01:00:00 15.3 9 Oeste 23 Oeste 0 -- -- 44
2019-10-11 00:00:00 15 4 Noroeste 10 Sudoeste 0 -- -- 47
2019-10-10 23:00:00 15.2 8 Sudoeste 15 Sudoeste 0 -- -- 46
2019-10-10 22:00:00 14.9 6 Oeste 14 Oeste 0 -- -- 49
2019-10-10 21:00:00 14.2 3 Norte 6 Norte 0 -- -- 63
2019-10-10 20:00:00 14.8 3 Noroeste 4 Sur 0 -- -- 63
2019-10-10 19:00:00 16.2 3 Norte 12 Noroeste 0 -- -- 59
2019-10-10 18:00:00 23.9 2 Oeste 8 Norte 0 -- -- 32
2019-10-10 17:00:00 22.3 3 Sur 10 Sudoeste 0 -- -- 35
2019-10-10 16:00:00 21.8 6 Sudoeste 11 Sudeste 0 -- -- 37
2019-10-10 15:00:00 19.9 5 Sur 15 Sudoeste 0 -- -- 37
2019-10-10 14:00:00 18.8 8 Sur 19 Sur 0 -- -- 40
2019-10-10 13:00:00 17.6 11 Sur 20 Sur 0 -- -- 47
2019-10-10 12:00:00 16 6 Sur 11 Sur 0 -- -- 52
2019-10-10 11:00:00 13.9 5 Sur 9 Sur 0 -- -- 59
2019-10-10 10:00:00 9.6 0 Calma 5 Sur 0 -- -- 69
2019-10-10 09:00:00 6.6 2 Este 8 Sudeste 0 -- -- 81
2019-10-10 08:00:00 6.9 3 Sudeste 6 Sur 0 -- -- 81
2019-10-10 07:00:00 6.7 2 Norte 4 Norte 0 -- -- 85
2019-10-10 06:00:00 6.1 0 Calma 3 Nordeste 0 -- -- 88
2019-10-10 05:00:00 6.4 0 Calma 6 Noroeste 0 -- -- 91
2019-10-10 04:00:00 5.9 2 Sur 6 Norte 0 -- -- 87
2019-10-10 03:00:00 6.3 2 Oeste 5 Norte 0 -- -- 90
2019-10-10 02:00:00 6.8 4 Norte 6 Norte 0 -- -- 89
2019-10-10 01:00:00 7.4 3 Norte 9 Noroeste 0 -- -- 84
2019-10-10 00:00:00 7.6 6 Norte 11 Norte 0 -- -- 84
2019-10-09 23:00:00 8 5 Noroeste 10 Norte 0 -- -- 79
2019-10-09 22:00:00 8.3 7 Norte 12 Norte 0 -- -- 79
2019-10-09 21:00:00 8.6 7 Norte 17 Norte 0 -- -- 77
2019-10-09 20:00:00 9.9 9 Norte 14 Norte 0 -- -- 69
2019-10-09 19:00:00 11.1 8 Norte 13 Norte 0 -- -- 62
2019-10-09 18:00:00 14.7 5 Norte 14 Noroeste 0 -- -- 52
2019-10-09 17:00:00 14.5 6 Norte 17 Norte 0 -- -- 56
2019-10-09 16:00:00 14 5 Nordeste 17 Nordeste 0 -- -- 54
2019-10-09 15:00:00 13.3 8 Nordeste 17 Nordeste 0 -- -- 61
2019-10-09 14:00:00 12.6 6 Norte 15 Este 0 -- -- 62
2019-10-09 13:00:00 12.3 5 Nordeste 14 Nordeste 0 -- -- 66
2019-10-09 12:00:00 11.5 5 Nordeste 13 Nordeste 0 -- -- 72
2019-10-09 11:00:00 11.5 4 Nordeste 13 Nordeste 0 -- -- 71
2019-10-09 10:00:00 8.1 2 Norte 9 Nordeste 0 -- -- 89
2019-10-09 09:00:00 6.6 5 Norte 8 Norte 0 -- -- 90
2019-10-09 08:00:00 6.7 4 Norte 9 Norte 0 -- -- 90
2019-10-09 07:00:00 6.7 3 Norte 9 Norte 0 -- -- 90
2019-10-09 06:00:00 5.9 5 Norte 10 Norte 0 -- -- 91
2019-10-09 05:00:00 5.9 6 Norte 10 Norte 0 -- -- 90
2019-10-09 04:00:00 6.5 6 Norte 13 Norte 0.2 -- -- 88
2019-10-09 03:00:00 8.2 4 Norte 13 Noroeste 0 -- -- 91
2019-10-09 02:00:00 7.8 5 Norte 15 Noroeste 0.4 -- -- 91
2019-10-09 01:00:00 8.8 5 Norte 12 Noroeste 0 -- -- 92
2019-10-09 00:00:00 9.7 4 Norte 15 Norte 0.6 -- -- 92
2019-10-08 23:00:00 9.9 8 Norte 15 Norte 0.8 -- -- 92
2019-10-08 22:00:00 10.5 8 Norte 17 Noroeste 1 -- -- 92
2019-10-08 21:00:00 11.5 2 Norte 11 Norte 0.4 -- -- 92
2019-10-08 20:00:00 12.3 4 Norte 13 Norte 0.2 -- -- 91
2019-10-08 19:00:00 13.3 5 Norte 15 Norte 0.2 -- -- 90
2019-10-08 18:00:00 14.3 4 Norte 14 Noroeste 1.6 -- -- 90
2019-10-08 17:00:00 14.9 7 Norte 21 Norte 0.4 -- -- 89
2019-10-08 16:00:00 17.2 4 Este 15 Nordeste 0.2 -- -- 81
2019-10-08 15:00:00 17.7 2 Este 8 Sur 0.2 -- -- 81
2019-10-08 14:00:00 17.6 3 Este 11 Noroeste 0 -- -- 77
2019-10-08 13:00:00 18 4 Sur 9 Sudoeste 0 -- -- 72
2019-10-08 12:00:00 16.6 4 Sudoeste 7 Sudoeste 0 -- -- 76
2019-10-08 11:00:00 15.4 3 Este 5 Nordeste 0 -- -- 78
2019-10-08 10:00:00 14.3 0 Calma 9 Norte 0 -- -- 78
2019-10-08 09:00:00 13.2 4 Norte 9 Noroeste 0 -- -- 85
2019-10-08 08:00:00 12.7 0 Calma 5 Nordeste 0 -- -- 74
2019-10-08 07:00:00 13.9 3 Este 7 Norte 0 -- -- 65
2019-10-08 06:00:00 14.9 0 Calma 6 Sudoeste 0 -- -- 63
2019-10-08 05:00:00 13.6 0 Calma 6 Norte 0 -- -- 65
2019-10-08 04:00:00 12.4 2 Noroeste 5 Norte 0 -- -- 88
2019-10-08 03:00:00 12.8 3 Norte 7 Norte 0 -- -- 85
2019-10-08 02:00:00 13 0 Calma 3 Nordeste 0 -- -- 77
2019-10-08 01:00:00 13.3 0 Calma 6 Noroeste 0 -- -- 54
2019-10-08 00:00:00 15.1 2 Noroeste 6 Norte 0 -- -- 46
2019-10-07 23:00:00 15.5 2 Norte 5 Norte 0 -- -- 42
2019-10-07 22:00:00 16.1 0 Calma 12 Norte 0 -- -- 38
2019-10-07 21:00:00 15.7 6 Norte 9 Norte 0 -- -- 39
2019-10-07 20:00:00 17.8 5 Norte 14 Norte 0 -- -- 33
2019-10-07 19:00:00 19.2 9 Norte 16 Norte 0 -- -- 28
2019-10-07 18:00:00 23.4 5 Norte 16 Nordeste 0 -- -- 22
2019-10-07 17:00:00 23.6 7 Nordeste 17 Este 0 -- -- 26
2019-10-07 16:00:00 23.7 6 Este 16 Norte 0 -- -- 26
2019-10-07 15:00:00 23.9 4 Oeste 12 Sudoeste 0 -- -- 20
2019-10-07 14:00:00 23.2 4 Este 12 Sudeste 0 -- -- 17
2019-10-07 13:00:00 23.1 4 Sur 9 Sur 0 -- -- 25
2019-10-07 12:00:00 21.6 4 Sur 8 Sur 0 -- -- 25
2019-10-07 11:00:00 21 3 Sudoeste 6 Sur 0 -- -- 22
2019-10-07 10:00:00 16.3 0 Calma 4 Este 0 -- -- 23
2019-10-07 09:00:00 13.9 0 Calma 5 Norte 0 -- -- 13
2019-10-07 08:00:00 13.6 3 Norte 4 Noroeste 0 -- -- 14
2019-10-07 07:00:00 13.1 0 Calma 5 Norte 0 -- -- 17
2019-10-07 06:00:00 12.9 0 Calma 2 Nordeste 0 -- -- 22
2019-10-07 05:00:00 13.6 0 Calma 4 Noroeste 0 -- -- 16
2019-10-07 04:00:00 13.6 0 Calma 4 Norte 0 -- -- 13
2019-10-07 03:00:00 12.8 0 Calma 4 Nordeste 0 -- -- 37
2019-10-07 02:00:00 13.2 0 Calma 6 Norte 0 -- -- 21
2019-10-07 01:00:00 13 3 Norte 6 Norte 0 -- -- 30
2019-10-07 00:00:00 12.4 2 Norte 8 Norte 0 -- -- 56
2019-10-06 23:00:00 12.8 7 Norte 11 Norte 0 -- -- 63
2019-10-06 22:00:00 13.2 4 Norte 10 Norte 0 -- -- 62
2019-10-06 21:00:00 13.2 6 Norte 12 Norte 0 -- -- 66
2019-10-06 20:00:00 14.2 8 Norte 17 Norte 0 -- -- 62
2019-10-06 19:00:00 16 9 Norte 15 Noroeste 0 -- -- 60
2019-10-06 18:00:00 19.3 6 Norte 18 Nordeste 0 -- -- 48
2019-10-06 17:00:00 19.8 5 Norte 13 Este 0 -- -- 45
2019-10-06 16:00:00 19.1 6 Este 15 Sudeste 0 -- -- 51
2019-10-06 15:00:00 18.7 6 Este 19 Este 0 -- -- 56
2019-10-06 14:00:00 17.4 7 Sudeste 17 Este 0 -- -- 65
2019-10-06 13:00:00 18.6 5 Sur 11 Oeste 0 -- -- 59
2019-10-06 12:00:00 15.2 3 Sudeste 9 Sur 0 -- -- 73
2019-10-06 11:00:00 13.9 4 Nordeste 8 Nordeste 0 -- -- 86
2019-10-06 10:00:00 12.2 0 Calma 5 Nordeste 0 -- -- 91
2019-10-06 09:00:00 11.7 3 Norte 6 Norte 0 -- -- 92
2019-10-06 08:00:00 10.6 0 Calma 3 Oeste 0 -- -- 91
2019-10-06 07:00:00 10.9 0 Calma 6 Norte 0 -- -- 89
2019-10-06 06:00:00 10.9 0 Calma 12 Noroeste 0 -- -- 88
2019-10-06 05:00:00 10.6 7 Norte 10 Norte 0 -- -- 88
2019-10-06 04:00:00 11.1 4 Norte 8 Norte 0 -- -- 87
2019-10-06 03:00:00 10.8 5 Norte 8 Noroeste 0 -- -- 82
2019-10-06 02:00:00 10.5 0 Calma 8 Norte 0 -- -- 85
2019-10-06 01:00:00 9.1 0 Calma 7 Norte 0 -- -- 89
2019-10-06 00:00:00 9.4 2 Norte 9 Noroeste 0 -- -- 88
2019-10-05 23:00:00 9.7 0 Calma 10 Noroeste 0 -- -- 88
2019-10-05 22:00:00 10.4 3 Norte 18 Noroeste 0 -- -- 84
2019-10-05 21:00:00 11.9 7 Norte 11 Norte 0 -- -- 79
2019-10-05 20:00:00 12.6 4 Norte 11 Norte 0 -- -- 77
2019-10-05 19:00:00 13.9 5 Norte 12 Nordeste 0 -- -- 72
2019-10-05 18:00:00 15.6 5 Norte 16 Norte 0 -- -- 70
2019-10-05 17:00:00 16.9 8 Norte 15 Noroeste 0 -- -- 68
2019-10-05 16:00:00 18.1 4 Sudeste 18 Noroeste 0 -- -- 65
2019-10-05 15:00:00 16.8 11 Noroeste 20 Noroeste 0 -- -- 69
2019-10-05 14:00:00 17.1 5 Sur 9 Sur 0 -- -- 70
2019-10-05 13:00:00 12.3 3 Sudeste 10 Este 0 -- -- 85
2019-10-05 12:00:00 12.1 4 Sur 8 Sur 0 -- -- 84
2019-10-05 11:00:00 14.8 3 Sur 7 Sudeste 0 -- -- 71
2019-10-05 10:00:00 10.8 2 Sur 8 Nordeste 0.2 -- -- 92
2019-10-05 09:00:00 8.4 3 Nordeste 5 Este 0 -- -- 93
2019-10-05 08:00:00 8.4 2 Este 5 Nordeste 0 -- -- 92
2019-10-05 07:00:00 9.8 3 Noroeste 5 Noroeste 0 -- -- 92
2019-10-05 06:00:00 9.5 0 Calma 5 Norte 0 -- -- 91
2019-10-05 05:00:00 9.4 0 Calma 3 Nordeste 0 -- -- 91
2019-10-05 04:00:00 9.1 0 Calma 4 Oeste 0 -- -- 91
2019-10-05 03:00:00 9.9 0 Calma 5 Norte 0 -- -- 90
2019-10-05 02:00:00 9.9 0 Calma 4 Noroeste 0 -- -- 90
2019-10-05 01:00:00 10 3 Noroeste 5 Norte 0 -- -- 89
2019-10-05 00:00:00 10.3 0 Calma 5 Norte 0 -- -- 88
2019-10-04 23:00:00 10.5 2 Norte 6 Norte 0 -- -- 87
2019-10-04 22:00:00 11 0 Calma 9 Norte 0 -- -- 85
2019-10-04 21:00:00 11.8 9 Norte 14 Norte 0 -- -- 82
2019-10-04 20:00:00 12.8 8 Norte 13 Norte 0 -- -- 80
2019-10-04 19:00:00 14.2 6 Norte 10 Norte 0 -- -- 73
2019-10-04 18:00:00 18.5 4 Nordeste 14 Noroeste 0 -- -- 60
2019-10-04 17:00:00 17.2 7 Noroeste 21 Noroeste 0 -- -- 64
2019-10-04 16:00:00 16.7 9 Norte 17 Nordeste 0 -- -- 69
2019-10-04 15:00:00 16.4 6 Nordeste 15 Sudeste 0 -- -- 77
2019-10-04 14:00:00 16 2 Sur 10 Sur 0 -- -- 76
2019-10-04 13:00:00 14.5 3 Oeste 9 Sudeste 0 -- -- 90
2019-10-04 12:00:00 12.8 3 Nordeste 9 Sudeste 0 -- -- 92
2019-10-04 11:00:00 12.4 4 Norte 14 Norte 0.2 -- -- 92
2019-10-04 10:00:00 12.8 4 Norte 12 Norte 0 -- -- 92
2019-10-04 09:00:00 13.2 0 Calma 4 Oeste 0.4 -- -- 92
2019-10-04 08:00:00 13.1 0 Calma 4 Sudoeste 0.4 -- -- 92
2019-10-04 07:00:00 13.3 2 Norte 9 Norte 0 -- -- 92
2019-10-04 06:00:00 13.4 4 Norte 10 Norte 0.4 -- -- 92
2019-10-04 05:00:00 13.8 0 Calma 4 Nordeste 0.2 -- -- 92
2019-10-04 04:00:00 13.9 2 Sur 4 Sur 0 -- -- 92
2019-10-04 03:00:00 13.8 0 Calma 4 Oeste 0 -- -- 91
2019-10-04 02:00:00 13.9 2 Sur 6 Norte 0.2 -- -- 91
2019-10-04 01:00:00 14 0 Calma 8 Sur 0.2 -- -- 91
2019-10-04 00:00:00 14 0 Calma 3 Sudoeste 0.6 -- -- 90
2019-10-03 23:00:00 14.1 0 Calma 4 Nordeste 0.4 -- -- 88
2019-10-03 22:00:00 14.6 0 Calma 4 Este 0 -- -- 85
2019-10-03 21:00:00 14.9 4 Sudoeste 10 Norte 0 -- -- 81
2019-10-03 20:00:00 16.2 2 Norte 6 Norte 0 -- -- 72
2019-10-03 19:00:00 17.1 2 Sur 9 Norte 0 -- -- 69
2019-10-03 18:00:00 17.2 2 Este 13 Norte 0 -- -- 68
2019-10-03 17:00:00 19.4 6 Sudeste 17 Norte 0 -- -- 56
2019-10-03 16:00:00 18.6 8 Norte 17 Noroeste 0 -- -- 62
2019-10-03 15:00:00 18.8 6 Norte 27 Noroeste 0 -- -- 54
2019-10-03 14:00:00 19.1 6 Norte 18 Norte 0 -- -- 40
2019-10-03 13:00:00 19.3 4 Sudeste 12 Sudeste 0 -- -- 42
2019-10-03 12:00:00 17.9 5 Sur 12 Sur 0 -- -- 49
2019-10-03 11:00:00 18.6 5 Sur 8 Sur 0 -- -- 51
2019-10-03 10:00:00 13.8 3 Sudeste 9 Sur 0 -- -- 63
2019-10-03 09:00:00 10.1 2 Este 7 Noroeste 0 -- -- 73
2019-10-03 08:00:00 9.9 4 Norte 9 Noroeste 0 -- -- 75
2019-10-03 07:00:00 10.3 2 Norte 9 Noroeste 0 -- -- 73
2019-10-03 06:00:00 9.8 4 Noroeste 19 Oeste 0 -- -- 76
2019-10-03 05:00:00 11.2 3 Noroeste 15 Oeste 0 -- -- 70
2019-10-03 04:00:00 12.4 12 Oeste 21 Oeste 0 -- -- 66
2019-10-03 03:00:00 12.3 3 Noroeste 18 Oeste 0 -- -- 66
2019-10-03 02:00:00 12.5 3 Noroeste 12 Sur 0 -- -- 66
2019-10-03 01:00:00 12 4 Sur 13 Sur 0 -- -- 71
2019-10-03 00:00:00 9.3 0 Calma 4 Norte 0 -- -- 86
2019-10-02 23:00:00 9.4 0 Calma 5 Noroeste 0 -- -- 85
2019-10-02 22:00:00 10 3 Noroeste 9 Norte 0 -- -- 82
2019-10-02 21:00:00 11 5 Norte 11 Norte 0 -- -- 76
2019-10-02 20:00:00 11.7 6 Norte 10 Norte 0 -- -- 71
2019-10-02 19:00:00 12.9 6 Norte 11 Norte 0 -- -- 65
2019-10-02 18:00:00 17 5 Norte 12 Norte 0 -- -- 53
2019-10-02 17:00:00 15.6 5 Norte 14 Nordeste 0 -- -- 61
2019-10-02 16:00:00 15.4 8 Nordeste 23 Nordeste 0 -- -- 59
2019-10-02 15:00:00 15.1 8 Norte 16 Noroeste 0 -- -- 57
2019-10-02 14:00:00 13.5 4 Nordeste 12 Norte 0 -- -- 63
2019-10-02 13:00:00 12.7 4 Norte 15 Este 0 -- -- 67
2019-10-02 12:00:00 11.1 4 Nordeste 12 Norte 0 -- -- 83
2019-10-02 11:00:00 9.9 4 Nordeste 15 Nordeste 0.2 -- -- 87
2019-10-02 10:00:00 9.1 3 Este 12 Noroeste 0 -- -- 87
2019-10-02 09:00:00 8.8 5 Norte 13 Noroeste 0 -- -- 85
2019-10-02 08:00:00 8.8 3 Noroeste 10 Norte 0 -- -- 84
2019-10-02 07:00:00 8.9 0 Calma 6 Nordeste 0 -- -- 84
2019-10-02 06:00:00 8.8 2 Sudeste 19 Noroeste 0 -- -- 82
2019-10-02 05:00:00 8.9 5 Norte 18 Noroeste 0 -- -- 81
2019-10-02 04:00:00 9 5 Este 13 Norte 0 -- -- 80
2019-10-02 03:00:00 8.9 4 Este 13 Este 0 -- -- 80
2019-10-02 02:00:00 9.2 5 Este 18 Nordeste 0 -- -- 84
2019-10-02 01:00:00 10.1 8 Norte 22 Noroeste 0 -- -- 84
2019-10-02 00:00:00 10.4 7 Norte 22 Norte 0 -- -- 83
2019-10-01 23:00:00 10.9 8 Nordeste 26 Norte 0 -- -- 82
2019-10-01 22:00:00 11.1 12 Norte 34 Norte 0 -- -- 78
2019-10-01 21:00:00 12.2 14 Norte 34 Norte 0 -- -- 74
2019-10-01 20:00:00 13.4 5 Este 25 Norte 0 -- -- 69
2019-10-01 19:00:00 14.7 4 Nordeste 21 Norte 0 -- -- 60
2019-10-01 18:00:00 17 10 Norte 37 Norte 0 -- -- 51
2019-10-01 17:00:00 16.9 13 Norte 29 Norte 0 -- -- 55
2019-10-01 16:00:00 17.1 12 Nordeste 32 Norte 0 -- -- 55
2019-10-01 15:00:00 17.1 8 Nordeste 40 Norte 0 -- -- 55
2019-10-01 14:00:00 15.6 9 Nordeste 26 Norte 0 -- -- 66
2019-10-01 13:00:00 14.1 5 Nordeste 27 Nordeste 0 -- -- 77
2019-10-01 12:00:00 13 10 Norte 30 Norte 0 -- -- 78
2019-10-01 11:00:00 12.1 4 Este 19 Este 0 -- -- 86
2019-10-01 10:00:00 11.7 7 Nordeste 29 Nordeste 0.4 -- -- 87
2019-10-01 09:00:00 11.8 8 Norte 23 Norte 0.6 -- -- 89
2019-10-01 08:00:00 11.8 4 Sudeste 15 Sudoeste 1.2 -- -- 89
2019-10-01 07:00:00 12.3 8 Sudoeste 20 Sudoeste 0 -- -- 84
2019-10-01 06:00:00 12.4 7 Sudoeste 17 Sudoeste 0 -- -- 80
2019-10-01 05:00:00 12 4 Sudoeste 16 Sudoeste 0 -- -- 80
2019-10-01 04:00:00 11.8 4 Norte 14 Noroeste 0 -- -- 83
2019-10-01 03:00:00 12.9 4 Norte 21 Sur 0 -- -- 80
2019-10-01 02:00:00 13.3 7 Sur 15 Norte 0 -- -- 83
2019-10-01 01:00:00 14.7 5 Oeste 14 Oeste 0 -- -- 75
2019-10-01 00:00:00 14.3 6 Oeste 13 Oeste 0 -- -- 77
2019-09-30 23:00:00 15 6 Oeste 15 Oeste 0 -- -- 80
2019-09-30 22:00:00 14.7 2 Noroeste 11 Norte 0 -- -- 84
2019-09-30 21:00:00 17 4 Nordeste 10 Noroeste 0 -- -- 74
2019-09-30 20:00:00 18 4 Nordeste 19 Norte 0 -- -- 69
2019-09-30 19:00:00 19.7 7 Nordeste 23 Nordeste 0 -- -- 55
2019-09-30 18:00:00 21.8 7 Oeste 21 Sudoeste 0 -- -- 46
2019-09-30 17:00:00 22.3 10 Oeste 23 Sur 0 -- -- 47
2019-09-30 16:00:00 21.9 10 Sudoeste 23 Sur 0 -- -- 48
2019-09-30 15:00:00 22.1 7 Sudoeste 23 Sur 0 -- -- 49
2019-09-30 14:00:00 21 8 Sur 22 Sur 0 -- -- 61
2019-09-30 13:00:00 20.2 11 Sudoeste 27 Sur 0 -- -- 66
2019-09-30 12:00:00 18.8 9 Sudoeste 18 Sur 0 -- -- 72
2019-09-30 11:00:00 17.4 8 Sur 20 Sudoeste 0 -- -- 77
2019-09-30 10:00:00 15.2 3 Sur 11 Sur 0 -- -- 87
2019-09-30 09:00:00 13.8 2 Noroeste 13 Sur 0 -- -- 90
2019-09-30 08:00:00 13.1 4 Oeste 9 Sudoeste 0 -- -- 90
2019-09-30 07:00:00 13.7 4 Sudoeste 12 Sudoeste 0 -- -- 90
2019-09-30 06:00:00 14.1 2 Noroeste 4 Noroeste 0 -- -- 89
2019-09-30 05:00:00 14.3 2 Noroeste 8 Sudoeste 0 -- -- 90
2019-09-30 04:00:00 14.4 0 Calma 4 Noroeste 0 -- -- 90
2019-09-30 03:00:00 14.3 3 Norte 4 Noroeste 0 -- -- 90
2019-09-30 02:00:00 14.1 0 Calma 5 Nordeste 0 -- -- 90
2019-09-30 01:00:00 14.2 0 Calma 19 Norte 0 -- -- 88
2019-09-30 00:00:00 14.3 3 Oeste 8 Nordeste 0.2 -- -- 91
2019-09-29 23:00:00 14.4 0 Calma 5 Oeste 0.2 -- -- 90
2019-09-29 22:00:00 14.5 2 Este 10 Noroeste 0 -- -- 88
2019-09-29 21:00:00 14.7 0 Calma 10 Sur 0 -- -- 85
2019-09-29 20:00:00 15 3 Este 17 Sudoeste 0 -- -- 82
2019-09-29 19:00:00 15.6 7 Sudoeste 14 Oeste 0.2 -- -- 83
2019-09-29 18:00:00 15.9 3 Este 15 Sur 0.6 -- -- 87
2019-09-29 17:00:00 16 6 Sudoeste 17 Sudoeste 0.2 -- -- 84
2019-09-29 16:00:00 15.8 6 Sur 21 Sudoeste 0.6 -- -- 84
2019-09-29 15:00:00 15.6 9 Sudoeste 24 Sur 0 -- -- 80
2019-09-29 14:00:00 16 10 Sur 27 Sur 0 -- -- 74
2019-09-29 13:00:00 15.5 11 Sudoeste 30 Sudoeste 0 -- -- 68
2019-09-29 12:00:00 16.6 14 Sudoeste 29 Sudoeste 0 -- -- 55
2019-09-29 11:00:00 17.7 10 Sudoeste 30 Sudeste 0 -- -- 49
2019-09-29 10:00:00 16.5 12 Sur 26 Sur 0 -- -- 45
2019-09-29 09:00:00 14.4 8 Sudoeste 24 Sudoeste 0 -- -- 57
2019-09-29 08:00:00 14.2 10 Oeste 21 Sudoeste 0 -- -- 43
2019-09-29 07:00:00 14.7 9 Sudoeste 21 Sudoeste 0 -- -- 39
2019-09-29 06:00:00 14.2 6 Sur 18 Sur 0 -- -- 33
2019-09-29 05:00:00 14 5 Sudeste 17 Sur 0 -- -- 27
2019-09-29 04:00:00 15 3 Este 18 Noroeste 0 -- -- 24
2019-09-29 03:00:00 15.5 8 Sur 22 Oeste 0 -- -- 25
2019-09-29 02:00:00 16.1 8 Sudoeste 18 Sudoeste 0 -- -- 19
2019-09-29 01:00:00 15.8 6 Oeste 22 Oeste 0 -- -- 35
2019-09-29 00:00:00 14 6 Sudoeste 12 Sudoeste 0 -- -- 52
2019-09-28 23:00:00 14.1 5 Noroeste 10 Sudoeste 0 -- -- 50
2019-09-28 22:00:00 15.9 3 Noroeste 12 Sudoeste 0 -- -- 41
2019-09-28 21:00:00 15.8 5 Oeste 11 Sudoeste 0 -- -- 35
2019-09-28 20:00:00 17.7 3 Oeste 17 Noroeste 0 -- -- 23
2019-09-28 19:00:00 19.4 6 Oeste 15 Sudoeste 0 -- -- 27
2019-09-28 18:00:00 24.1 5 Oeste 18 Sudoeste 0 -- -- 17
2019-09-28 17:00:00 22.9 8 Oeste 21 Sudoeste 0 -- -- 16
2019-09-28 16:00:00 22.5 6 Oeste 19 Sur 0 -- -- 10
2019-09-28 15:00:00 20.8 12 Sur 24 Sur 0 -- -- 40
2019-09-28 14:00:00 20.2 10 Sur 22 Sur 0 -- -- 46
2019-09-28 13:00:00 18.4 11 Sur 22 Sur 0 -- -- 47
2019-09-28 12:00:00 17.7 8 Sur 14 Sur 0 -- -- 52
2019-09-28 11:00:00 16.9 2 Sudeste 6 Este 0 -- -- 56
2019-09-28 10:00:00 13.5 0 Calma 5 Nordeste 0 -- -- 71
2019-09-28 09:00:00 8 0 Calma 4 Nordeste 0 -- -- 79
2019-09-28 08:00:00 7 0 Calma 5 Sudeste 0 -- -- 90
2019-09-28 07:00:00 7.3 2 Sudeste 6 Sudeste 0 -- -- 92
2019-09-28 06:00:00 7.3 0 Calma 4 Sudeste 0 -- -- 92
2019-09-28 05:00:00 7.6 0 Calma 8 Noroeste 0 -- -- 91
2019-09-28 04:00:00 8.4 3 Noroeste 5 Norte 0 -- -- 90
2019-09-28 03:00:00 9.4 0 Calma 5 Noroeste 0 -- -- 89
2019-09-28 02:00:00 9.9 0 Calma 6 Noroeste 0 -- -- 88
2019-09-28 01:00:00 10 0 Calma 4 Noroeste 0 -- -- 88
2019-09-28 00:00:00 10.8 0 Calma 6 Noroeste 0 -- -- 86
2019-09-27 23:00:00 10.9 3 Nordeste 8 Norte 0 -- -- 86
2019-09-27 22:00:00 11.4 3 Norte 9 Norte 0 -- -- 85
2019-09-27 21:00:00 12.1 4 Norte 12 Noroeste 0 -- -- 81
2019-09-27 20:00:00 13.6 8 Norte 17 Norte 0 -- -- 79
2019-09-27 19:00:00 14.9 4 Norte 17 Oeste 0 -- -- 75
2019-09-27 18:00:00 15.6 3 Sudeste 15 Nordeste 0 -- -- 73
2019-09-27 17:00:00 15.6 2 Noroeste 11 Norte 0 -- -- 75
2019-09-27 16:00:00 14.5 5 Nordeste 24 Nordeste 0 -- -- 84
2019-09-27 15:00:00 13.3 10 Norte 26 Norte 0.6 -- -- 86
2019-09-27 14:00:00 13.6 6 Nordeste 23 Norte 0.6 -- -- 86
2019-09-27 13:00:00 14 6 Sur 22 Sudoeste 0.2 -- -- 85
2019-09-27 12:00:00 14.5 5 Sur 14 Oeste 0.2 -- -- 82
2019-09-27 11:00:00 13.5 2 Sur 6 Sudoeste 0.2 -- -- 88
2019-09-27 10:00:00 12.9 0 Calma 4 Sudeste 0.2 -- -- 85
2019-09-27 09:00:00 12.4 0 Calma 5 Sur 0 -- -- 84
2019-09-27 08:00:00 12.3 4 Sur 10 Sur 0 -- -- 83
2019-09-27 07:00:00 12.4 4 Este 14 Norte 0 -- -- 80
2019-09-27 06:00:00 12 0 Calma 5 Noroeste 0 -- -- 81
2019-09-27 05:00:00 11.5 0 Calma 5 Noroeste 0 -- -- 82
2019-09-27 04:00:00 10.3 0 Calma 6 Norte 0 -- -- 83
2019-09-27 03:00:00 9.3 0 Calma 4 Norte 0 -- -- 84
2019-09-27 02:00:00 9.3 3 Noroeste 16 Oeste 0 -- -- 84
2019-09-27 01:00:00 9.8 4 Noroeste 8 Norte 0 -- -- 86
2019-09-27 00:00:00 10.6 0 Calma 6 Este 0 -- -- 87
2019-09-26 23:00:00 11.2 3 Nordeste 15 Norte 0 -- -- 86
2019-09-26 22:00:00 12.1 8 Norte 18 Sudoeste 0 -- -- 81
2019-09-26 21:00:00 14.2 4 Sur 14 Sudoeste 0 -- -- 70
2019-09-26 20:00:00 15.9 5 Norte 16 Norte 0 -- -- 58
2019-09-26 19:00:00 17.4 5 Norte 14 Noroeste 0 -- -- 51
2019-09-26 18:00:00 20.4 6 Noroeste 21 Norte 0 -- -- 43
2019-09-26 17:00:00 20.1 7 Norte 21 Este 0 -- -- 44
2019-09-26 16:00:00 20.5 6 Norte 15 Nordeste 0 -- -- 42
2019-09-26 15:00:00 20.6 5 Sur 14 Sur 0 -- -- 44
2019-09-26 14:00:00 19.7 5 Sudoeste 19 Sur 0 -- -- 49
2019-09-26 13:00:00 18.7 5 Sur 13 Sur 0 -- -- 49
2019-09-26 12:00:00 17.7 6 Sur 14 Sur 0 -- -- 52
2019-09-26 11:00:00 14.8 6 Sur 10 Sur 0 -- -- 61
2019-09-26 10:00:00 12.9 4 Sur 14 Oeste 0 -- -- 67
2019-09-26 09:00:00 7.8 0 Calma 13 Sudoeste 0 -- -- 86
2019-09-26 08:00:00 7.6 2 Nordeste 10 Sudoeste 0 -- -- 85
2019-09-26 07:00:00 8.3 2 Nordeste 12 Oeste 0 -- -- 84
2019-09-26 06:00:00 8.4 3 Norte 13 Noroeste 0 -- -- 82
2019-09-26 05:00:00 8.6 3 Noroeste 18 Oeste 0 -- -- 81
2019-09-26 04:00:00 9.1 4 Oeste 13 Noroeste 0 -- -- 84
2019-09-26 03:00:00 8.9 3 Oeste 6 Oeste 0 -- -- 85
2019-09-26 02:00:00 9.4 0 Calma 9 Noroeste 0 -- -- 84
2019-09-26 01:00:00 9.9 3 Noroeste 9 Noroeste 0 -- -- 85
2019-09-26 00:00:00 10.2 3 Norte 7 Norte 0 -- -- 83
2019-09-25 23:00:00 11 0 Calma 7 Este 0 -- -- 79
2019-09-25 22:00:00 11.4 3 Oeste 9 Sudoeste 0 -- -- 76
2019-09-25 21:00:00 12 4 Sur 14 Oeste 0 -- -- 75
2019-09-25 20:00:00 12.5 2 Este 14 Sudoeste 0 -- -- 74
2019-09-25 19:00:00 12.9 3 Sur 15 Nordeste 0 -- -- 72
2019-09-25 18:00:00 13.8 4 Sur 18 Sur 0 -- -- 69
2019-09-25 17:00:00 15 4 Sur 13 Sudoeste 0 -- -- 64
2019-09-25 16:00:00 14 3 Sudoeste 12 Sudoeste 0 -- -- 68
2019-09-25 15:00:00 14 4 Nordeste 17 Noroeste 0 -- -- 67
2019-09-25 14:00:00 13.8 4 Este 18 Noroeste 0 -- -- 67
2019-09-25 13:00:00 12 8 Norte 15 Norte 0 -- -- 73
2019-09-25 12:00:00 12.3 6 Norte 20 Norte 0 -- -- 71
2019-09-25 11:00:00 11.4 5 Nordeste 11 Nordeste 0 -- -- 76
2019-09-25 10:00:00 10.3 4 Sur 7 Sur 0 -- -- 86
2019-09-25 09:00:00 9.4 3 Nordeste 13 Nordeste 0 -- -- 86
2019-09-25 08:00:00 8.8 0 Calma 14 Este 0 -- -- 86
2019-09-25 07:00:00 8.9 4 Norte 14 Norte 0 -- -- 87
2019-09-25 06:00:00 8.9 5 Nordeste 15 Este 0.2 -- -- 86
2019-09-25 05:00:00 9.2 7 Norte 20 Norte 0 -- -- 85
2019-09-25 04:00:00 9.1 4 Sudeste 8 Este 0 -- -- 88
2019-09-25 03:00:00 9.2 4 Este 18 Noroeste 0 -- -- 84
2019-09-25 02:00:00 9.1 3 Nordeste 21 Noroeste 0 -- -- 83
2019-09-25 01:00:00 9.3 5 Nordeste 17 Nordeste 0 -- -- 81
2019-09-25 00:00:00 9.3 4 Nordeste 25 Norte 0 -- -- 80
2019-09-24 23:00:00 9.8 10 Norte 23 Norte 0 -- -- 77
2019-09-24 22:00:00 10.7 11 Norte 30 Nordeste 0 -- -- 75
2019-09-24 21:00:00 11.4 10 Norte 28 Norte 0 -- -- 69
2019-09-24 20:00:00 12.6 10 Nordeste 25 Nordeste 0 -- -- 66
2019-09-24 19:00:00 13.6 5 Nordeste 28 Norte 0 -- -- 68
2019-09-24 18:00:00 14.4 8 Norte 23 Nordeste 0 -- -- 68
2019-09-24 17:00:00 14.9 9 Norte 30 Norte 0 -- -- 67
2019-09-24 16:00:00 15.4 6 Nordeste 31 Sudoeste 0 -- -- 66
2019-09-24 15:00:00 15.3 13 Sudoeste 29 Oeste 0 -- -- 62
2019-09-24 14:00:00 15.8 7 Norte 28 Sudoeste 0 -- -- 66
2019-09-24 13:00:00 15.5 8 Sur 33 Sudoeste 0 -- -- 71
2019-09-24 12:00:00 15.7 9 Este 28 Oeste 0.2 -- -- 75
2019-09-24 11:00:00 14.5 3 Sudeste 14 Norte 2.2 -- -- 88
2019-09-24 10:00:00 14.6 7 Sur 26 Sudoeste 0 -- -- 82
2019-09-24 09:00:00 13.9 9 Sur 31 Sudoeste 0 -- -- 87
2019-09-24 08:00:00 13.1 5 Sur 13 Sur 0.4 -- -- 90
2019-09-24 07:00:00 13 6 Sudeste 25 Sur 0.4 -- -- 87
2019-09-24 06:00:00 13.1 5 Este 23 Sudeste 0.2 -- -- 86
2019-09-24 05:00:00 13.2 4 Este 36 Sudoeste 0.8 -- -- 84
2019-09-24 04:00:00 13.8 12 Sur 34 Sur 0.2 -- -- 81
2019-09-24 03:00:00 14.3 8 Sur 28 Sur 0 -- -- 76
2019-09-24 02:00:00 13.5 10 Sur 30 Sur 0 -- -- 77
2019-09-24 01:00:00 13.8 10 Sur 26 Sur 0 -- -- 76
2019-09-24 00:00:00 14 4 Noroeste 25 Sur 0 -- -- 74
2019-09-23 23:00:00 13.7 12 Sudoeste 27 Sur 0 -- -- 76
2019-09-23 22:00:00 13.3 5 Sur 21 Sudoeste 0 -- -- 78
2019-09-23 21:00:00 13.9 8 Sudoeste 28 Sur 0 -- -- 73
2019-09-23 20:00:00 14.4 16 Sudoeste 28 Sur 0 -- -- 70
2019-09-23 19:00:00 14 12 Sur 26 Sur 0 -- -- 70
2019-09-23 18:00:00 14.1 5 Sur 19 Sudoeste 0 -- -- 71
2019-09-23 17:00:00 14.2 11 Sudoeste 30 Sudoeste 0.2 -- -- 70
2019-09-23 16:00:00 13.3 15 Sudoeste 26 Sudoeste 0.4 -- -- 73
2019-09-23 15:00:00 13.8 8 Sur 26 Sudoeste 0.4 -- -- 71
2019-09-23 14:00:00 14.9 11 Sudoeste 23 Sur 0 -- -- 58
2019-09-23 13:00:00 14.4 10 Oeste 27 Sudoeste 0 -- -- 60
2019-09-23 12:00:00 14.4 12 Sudoeste 33 Sur 0 -- -- 58
2019-09-23 11:00:00 11.7 11 Sur 28 Sur 0 -- -- 71
2019-09-23 10:00:00 10.7 10 Sudeste 24 Sur 0 -- -- 74
2019-09-23 09:00:00 9.6 6 Sur 23 Sur 0 -- -- 78
2019-09-23 08:00:00 9.6 8 Sur 24 Sur 0 -- -- 78
2019-09-23 07:00:00 9.7 7 Sur 21 Sudeste 0 -- -- 77
2019-09-23 06:00:00 9.8 8 Oeste 17 Oeste 0 -- -- 77
2019-09-23 05:00:00 9.5 5 Sur 20 Sudeste 0 -- -- 79
2019-09-23 04:00:00 9.5 7 Sur 23 Sudoeste 0 -- -- 78
2019-09-23 03:00:00 9.7 4 Sur 21 Sur 0 -- -- 77
2019-09-23 02:00:00 9.9 5 Oeste 16 Noroeste 0 -- -- 77
2019-09-23 01:00:00 10.2 4 Sur 15 Oeste 0 -- -- 78
2019-09-23 00:00:00 10.2 9 Oeste 22 Oeste 0 -- -- 79
2019-09-22 23:00:00 10.5 7 Oeste 17 Oeste 0 -- -- 75
2019-09-22 22:00:00 11.1 4 Noroeste 17 Sudoeste 0 -- -- 73
2019-09-22 21:00:00 11.5 3 Sudoeste 24 Sudoeste 0 -- -- 71
2019-09-22 20:00:00 13.4 5 Sur 18 Oeste 0 -- -- 61
2019-09-22 19:00:00 13.9 7 Sudoeste 22 Sudoeste 0 -- -- 60
2019-09-22 18:00:00 14.6 3 Sudeste 19 Norte 0 -- -- 64
2019-09-22 17:00:00 15.9 9 Sudoeste 26 Oeste 0 -- -- 52
2019-09-22 16:00:00 14.5 9 Oeste 22 Sudoeste 0 -- -- 53
2019-09-22 15:00:00 14.4 8 Oeste 28 Sudoeste 0 -- -- 58
2019-09-22 14:00:00 13.4 9 Sudoeste 24 Sudoeste 0 -- -- 58
2019-09-22 13:00:00 13.4 9 Oeste 26 Sudoeste 0.2 -- -- 58
2019-09-22 12:00:00 13 7 Sudoeste 23 Sudoeste 0 -- -- 67
2019-09-22 11:00:00 13.4 8 Sur 27 Sudoeste 0 -- -- 64
2019-09-22 10:00:00 11.2 9 Sudoeste 22 Sudoeste 0 -- -- 68
2019-09-22 09:00:00 8.9 10 Sudoeste 21 Sudoeste 0 -- -- 75
2019-09-22 08:00:00 8.9 5 Sudoeste 19 Sur 0 -- -- 78
2019-09-22 07:00:00 9.5 9 Oeste 25 Norte 0 -- -- 70
2019-09-22 06:00:00 10.5 6 Sudoeste 18 Sudoeste 0 -- -- 71
2019-09-22 05:00:00 10.9 8 Oeste 21 Sudoeste 0 -- -- 74
2019-09-22 04:00:00 10.6 6 Sur 21 Oeste 0 -- -- 79
2019-09-22 03:00:00 10.7 5 Oeste 22 Sudoeste 0 -- -- 79
2019-09-22 02:00:00 10.3 8 Sudoeste 21 Oeste 0 -- -- 81
2019-09-22 01:00:00 10 6 Sur 18 Sudeste 0 -- -- 84
2019-09-22 00:00:00 9.8 3 Nordeste 15 Sudoeste 0 -- -- 84
2019-09-21 23:00:00 9.4 5 Oeste 12 Norte 0 -- -- 85
2019-09-21 22:00:00 10.2 7 Sudoeste 35 Noroeste 0.2 -- -- 81
2019-09-21 21:00:00 10.9 17 Oeste 42 Oeste 3.2 -- -- 82
2019-09-21 20:00:00 14 12 Sur 39 Sur 0.6 -- -- 88
2019-09-21 19:00:00 14.2 15 Sur 35 Sur 2.8 -- -- 88
2019-09-21 18:00:00 14.7 19 Sur 38 Sur 2.2 -- -- 85
2019-09-21 17:00:00 14.9 10 Sur 37 Sur 0.2 -- -- 87
2019-09-21 16:00:00 15.5 14 Sur 32 Sur 1 -- -- 85
2019-09-21 15:00:00 16 18 Sur 37 Sur 0 -- -- 76
2019-09-21 14:00:00 14.8 15 Sur 41 Sur 0.2 -- -- 83
2019-09-21 13:00:00 13.8 18 Sur 46 Sur 0.2 -- -- 87
2019-09-21 12:00:00 12.6 17 Sur 45 Sur 0.4 -- -- 86
2019-09-21 11:00:00 13.5 21 Sur 41 Sur 0 -- -- 81
2019-09-21 10:00:00 13.2 14 Sur 31 Sur 0.2 -- -- 81
2019-09-21 09:00:00 13.7 12 Sur 35 Sur 0.2 -- -- 76
2019-09-21 08:00:00 14.1 19 Sur 40 Sur 0 -- -- 70
2019-09-21 07:00:00 13.9 15 Sudoeste 49 Sur 0 -- -- 69
2019-09-21 06:00:00 14.2 19 Sur 45 Sur 0 -- -- 69
2019-09-21 05:00:00 14.2 13 Sur 29 Sur 0 -- -- 69
2019-09-21 04:00:00 14.4 12 Sudoeste 27 Sudoeste 0 -- -- 68
2019-09-21 03:00:00 14.9 8 Sudoeste 21 Sudoeste 0 -- -- 69
2019-09-21 02:00:00 15.1 13 Sudoeste 26 Oeste 0 -- -- 70
2019-09-21 01:00:00 15.9 10 Sudoeste 21 Oeste 0 -- -- 68
2019-09-21 00:00:00 14.1 6 Oeste 17 Sudoeste 0 -- -- 79
2019-09-20 23:00:00 14.1 3 Norte 6 Noroeste 0 -- -- 86
2019-09-20 22:00:00 14.6 2 Norte 16 Norte 0 -- -- 84
2019-09-20 21:00:00 16.2 9 Norte 20 Noroeste 0 -- -- 76
2019-09-20 20:00:00 18.8 6 Oeste 12 Sudoeste 0 -- -- 57
2019-09-20 19:00:00 17.9 4 Oeste 13 Sudoeste 0 -- -- 66
2019-09-20 18:00:00 17.4 10 Oeste 19 Noroeste 0.8 -- -- 67
2019-09-20 17:00:00 20 10 Oeste 23 Oeste 0.2 -- -- 55
2019-09-20 16:00:00 23.2 10 Sudoeste 26 Sur 0 -- -- 41
2019-09-20 15:00:00 24.2 15 Sur 33 Sur 0 -- -- 39
2019-09-20 14:00:00 24.8 13 Sur 28 Sur 0 -- -- 40
2019-09-20 13:00:00 22.4 11 Sur 22 Sur 0 -- -- 46
2019-09-20 12:00:00 20.2 12 Sur 24 Sur 0 -- -- 52
2019-09-20 11:00:00 19.4 15 Sur 34 Sur 0 -- -- 54
2019-09-20 10:00:00 19.1 13 Sur 33 Sur 0 -- -- 54
2019-09-20 09:00:00 17.1 11 Sur 29 Sur 0 -- -- 59
2019-09-20 08:00:00 16.8 13 Sur 29 Sur 0 -- -- 60
2019-09-20 07:00:00 17.2 9 Sur 33 Sur 0 -- -- 60
2019-09-20 06:00:00 16.9 9 Sur 32 Sudeste 0 -- -- 61
2019-09-20 05:00:00 16.8 12 Sur 34 Sur 0 -- -- 59
2019-09-20 04:00:00 17.4 14 Sur 30 Sur 0 -- -- 58
2019-09-20 03:00:00 17.4 9 Sur 19 Sur 0 -- -- 58
2019-09-20 02:00:00 17.1 4 Sur 8 Sudoeste 0 -- -- 60
2019-09-20 01:00:00 16.9 2 Noroeste 6 Noroeste 0 -- -- 66
2019-09-20 00:00:00 16.8 3 Norte 6 Norte 0 -- -- 71